Time;durP1;ratioP1;P1;durP2;ratioP2;P2;SDS_P1;SDS_P2;PMS_P1;PMS_P2;Temp;Humidity;BMP_temperature;BMP_pressure;BME280_temperature;BME280_humidity;BME280_pressure;Samples;Min_cycle;Max_cycle;Signal;HPM_P1;HPM_P2
2022/12/23 00:02:17;;;;;;;12.85;9.80;;;9.00;99.90;;;;;;5011812;28;20463;-49
2022/12/23 00:05:04;;;;;;;11.15;9.25;;;9.00;99.90;;;;;;5026916;28;20453;-51
2022/12/23 00:07:50;;;;;;;10.60;9.05;;;9.00;99.90;;;;;;5023915;28;20576;-52
2022/12/23 00:10:39;;;;;;;11.60;8.77;;;9.10;99.90;;;;;;5013000;28;20088;-53
2022/12/23 00:16:30;;;;;;;8.98;7.85;;;9.10;99.90;;;;;;5019646;28;20036;-52
2022/12/23 00:19:16;;;;;;;11.05;8.85;;;9.20;99.90;;;;;;5016638;28;20045;-52
2022/12/23 00:22:02;;;;;;;12.98;9.07;;;9.20;99.90;;;;;;5029369;28;20025;-51
2022/12/23 00:24:48;;;;;;;10.57;9.48;;;9.20;99.90;;;;;;5026869;28;20089;-47
2022/12/23 00:27:34;;;;;;;11.35;9.32;;;9.20;99.90;;;;;;5021340;28;20026;-50
2022/12/23 00:30:20;;;;;;;9.77;8.10;;;9.20;99.90;;;;;;5014095;28;20029;-48
2022/12/23 00:33:05;;;;;;;12.45;9.00;;;9.20;99.90;;;;;;5008955;28;20030;-47
2022/12/23 00:35:52;;;;;;;10.98;8.75;;;9.30;99.90;;;;;;5023797;28;20056;-53
2022/12/23 00:44:48;;;;;;;14.40;8.90;;;9.30;99.90;;;;;;5011493;28;20643;-50
2022/12/23 00:50:38;;;;;;;9.05;6.95;;;9.20;99.90;;;;;;5000603;28;20461;-48
2022/12/23 00:53:25;;;;;;;8.38;6.80;;;9.30;99.90;;;;;;5015812;28;20037;-55
2022/12/23 00:56:10;;;;;;;10.40;6.45;;;9.30;99.90;;;;;;5014871;28;20076;-49
2022/12/23 00:58:57;;;;;;;8.80;6.70;;;9.30;99.90;;;;;;5026245;28;20037;-53
2022/12/23 01:07:51;;;;;;;7.05;5.72;;;9.30;99.90;;;;;;5027755;28;20025;-46
2022/12/23 01:10:39;;;;;;;8.20;5.75;;;9.30;99.90;;;;;;5015453;28;20032;-46
2022/12/23 01:13:25;;;;;;;46.97;25.98;;;9.30;99.90;;;;;;5033754;28;20030;-54
2022/12/23 01:16:11;;;;;;;9.63;7.63;;;9.40;99.90;;;;;;5019313;28;20029;-56
2022/12/23 01:18:57;;;;;;;7.05;5.50;;;9.50;99.90;;;;;;5025994;28;20029;-55
2022/12/23 01:21:44;;;;;;;6.95;4.70;;;9.40;99.90;;;;;;5049192;28;20116;-54
2022/12/23 01:24:31;;;;;;;6.82;4.50;;;9.40;99.90;;;;;;5026154;28;20038;-52
2022/12/23 01:27:17;;;;;;;8.93;4.32;;;9.30;99.90;;;;;;5028761;28;20026;-53
2022/12/23 01:30:03;;;;;;;8.82;4.32;;;9.30;99.90;;;;;;5033204;28;20100;-53
2022/12/23 01:32:49;;;;;;;10.55;5.03;;;9.30;99.90;;;;;;5023686;28;20097;-56
2022/12/23 01:35:35;;;;;;;7.55;4.40;;;9.30;99.90;;;;;;5041218;28;20104;-51
2022/12/23 01:38:21;;;;;;;7.70;3.92;;;9.20;99.90;;;;;;5032255;28;20032;-52
2022/12/23 01:41:07;;;;;;;5.75;3.83;;;9.20;99.90;;;;;;5036894;28;20022;-53
2022/12/23 01:43:53;;;;;;;4.97;3.35;;;9.20;99.90;;;;;;5038411;28;20038;-51
2022/12/23 01:46:38;;;;;;;4.93;2.95;;;9.40;99.90;;;;;;5029463;28;20018;-52
2022/12/23 01:49:24;;;;;;;8.40;3.05;;;9.40;99.90;;;;;;5016385;28;20034;-54
2022/12/23 01:52:12;;;;;;;8.80;2.83;;;9.30;99.90;;;;;;5010820;28;20105;-53
2022/12/23 01:54:58;;;;;;;6.80;3.25;;;9.40;99.90;;;;;;5013489;28;20022;-48
2022/12/23 01:57:45;;;;;;;8.27;3.38;;;9.40;99.90;;;;;;5012805;28;20037;-49
2022/12/23 02:03:41;;;;;;;6.28;2.95;;;9.40;99.90;;;;;;5010304;28;20114;-51
2022/12/23 02:09:43;;;;;;;5.22;3.13;;;9.50;99.90;;;;;;4984591;28;20482;-55
2022/12/23 02:12:41;;;;;;;6.80;2.85;;;9.50;99.90;;;;;;5010293;28;20041;-54
2022/12/23 02:19:06;;;;;;;6.65;3.28;;;9.40;99.90;;;;;;5011294;28;20026;-52
2022/12/23 02:22:30;;;;;;;5.55;2.90;;;9.30;99.90;;;;;;5013343;28;20025;-57
2022/12/23 02:25:42;;;;;;;4.57;2.97;;;9.40;99.90;;;;;;5009748;28;20119;-58
2022/12/23 02:29:09;;;;;;;4.65;2.80;;;9.40;99.90;;;;;;5013015;28;20014;-59
2022/12/23 02:32:07;;;;;;;5.05;2.80;;;9.30;99.90;;;;;;5011932;28;20022;-56
2022/12/23 02:35:42;;;;;;;5.70;3.05;;;9.30;99.90;;;;;;5011986;28;20061;-55
2022/12/23 02:38:58;;;;;;;6.60;3.05;;;9.40;99.90;;;;;;4968401;28;20027;-51
2022/12/23 02:42:00;;;;;;;5.47;2.90;;;9.40;99.90;;;;;;4974397;28;20031;-57
2022/12/23 02:44:58;;;;;;;5.60;2.67;;;9.40;99.90;;;;;;5011233;28;20026;-56
2022/12/23 02:47:55;;;;;;;5.20;2.97;;;9.40;99.90;;;;;;5014035;28;20548;-56
2022/12/23 02:50:43;;;;;;;7.05;3.00;;;9.40;99.90;;;;;;5004188;28;20025;-54
2022/12/23 02:53:48;;;;;;;8.23;3.13;;;9.40;99.90;;;;;;5010691;28;20092;-55
2022/12/23 02:56:37;;;;;;;5.60;3.22;;;9.40;99.90;;;;;;5008550;28;20030;-55
2022/12/23 02:59:27;;;;;;;5.65;3.10;;;9.40;99.90;;;;;;5012181;28;20038;-55
2022/12/23 03:02:13;;;;;;;4.50;2.75;;;9.50;99.90;;;;;;5010961;28;20030;-54
2022/12/23 03:04:59;;;;;;;7.07;3.30;;;9.50;99.90;;;;;;5011062;28;20430;-57
2022/12/23 03:07:45;;;;;;;4.38;2.50;;;9.50;99.90;;;;;;5011340;28;20033;-51
2022/12/23 03:10:50;;;;;;;5.18;2.95;;;9.50;99.90;;;;;;5010168;28;20475;-53
2022/12/23 03:14:13;;;;;;;3.35;2.53;;;9.50;99.90;;;;;;5005473;28;20024;-51
2022/12/23 03:17:08;;;;;;;5.10;2.40;;;9.50;99.90;;;;;;5010543;28;20117;-52
2022/12/23 03:19:56;;;;;;;4.03;2.33;;;9.50;99.90;;;;;;5010185;28;20038;-53
2022/12/23 03:22:57;;;;;;;6.03;2.90;;;9.50;99.90;;;;;;5011930;28;20537;-53
2022/12/23 03:26:02;;;;;;;3.95;2.60;;;9.50;99.90;;;;;;5010249;28;20522;-50
2022/12/23 03:29:07;;;;;;;4.72;3.10;;;9.50;99.90;;;;;;4992169;28;20037;-52
2022/12/23 03:31:57;;;;;;;3.45;2.50;;;9.60;99.90;;;;;;5006862;28;20042;-57
2022/12/23 03:34:46;;;;;;;4.30;2.60;;;9.60;99.90;;;;;;5012680;28;20034;-57
2022/12/23 03:37:36;;;;;;;3.72;2.67;;;9.50;99.90;;;;;;5028057;28;20494;-56
2022/12/23 03:40:30;;;;;;;4.22;2.50;;;9.60;99.90;;;;;;5030629;28;20417;-55
2022/12/23 03:43:27;;;;;;;4.57;2.67;;;9.50;99.90;;;;;;5006367;28;20057;-50
2022/12/23 03:46:22;;;;;;;3.97;2.40;;;9.60;99.90;;;;;;5017801;28;20075;-53
2022/12/23 03:49:13;;;;;;;4.93;2.88;;;9.50;99.90;;;;;;5031447;28;20123;-52
2022/12/23 03:52:04;;;;;;;4.15;2.42;;;9.50;99.90;;;;;;5012408;28;20410;-54
2022/12/23 03:55:00;;;;;;;4.13;2.55;;;9.40;99.90;;;;;;5012191;28;20070;-56
2022/12/23 03:57:59;;;;;;;5.45;2.53;;;9.40;99.90;;;;;;4992738;28;20487;-54
2022/12/23 04:00:53;;;;;;;4.72;2.80;;;9.50;99.90;;;;;;5000854;28;20026;-56
2022/12/23 04:03:50;;;;;;;4.65;2.90;;;9.40;99.90;;;;;;5030779;28;20022;-56
2022/12/23 04:06:50;;;;;;;5.80;2.80;;;9.50;99.90;;;;;;5015790;28;20034;-58
2022/12/23 04:09:36;;;;;;;6.78;2.60;;;9.50;99.90;;;;;;5019969;28;20083;-57
2022/12/23 04:12:24;;;;;;;5.32;2.88;;;9.60;99.90;;;;;;5030160;28;20021;-54
2022/12/23 04:15:10;;;;;;;4.50;2.50;;;9.60;99.90;;;;;;5016152;28;20561;-54
2022/12/23 04:17:57;;;;;;;3.85;2.55;;;9.60;99.90;;;;;;5012076;28;20029;-52
2022/12/23 04:20:43;;;;;;;4.70;2.97;;;9.60;99.90;;;;;;5028694;28;20029;-56
2022/12/23 04:23:29;;;;;;;6.75;3.13;;;9.60;99.90;;;;;;5029594;28;20117;-51
2022/12/23 04:26:14;;;;;;;3.55;2.50;;;9.60;99.90;;;;;;4989772;28;20084;-56
2022/12/23 04:29:00;;;;;;;5.95;2.85;;;9.60;99.90;;;;;;4994983;28;20104;-53
2022/12/23 04:31:46;;;;;;;6.10;3.40;;;9.60;99.90;;;;;;5029365;28;20057;-57
2022/12/23 04:34:32;;;;;;;3.58;2.97;;;9.50;99.90;;;;;;5023897;28;20510;-51
2022/12/23 04:37:18;;;;;;;6.07;3.60;;;9.40;99.90;;;;;;5011720;28;20030;-56
2022/12/23 04:40:05;;;;;;;5.25;3.28;;;9.40;99.90;;;;;;5011266;28;20150;-51
2022/12/23 04:42:51;;;;;;;6.25;3.20;;;9.50;99.90;;;;;;5010540;28;20037;-51
2022/12/23 04:45:37;;;;;;;5.47;3.30;;;9.50;99.90;;;;;;5028403;28;20124;-58
2022/12/23 04:48:23;;;;;;;8.05;3.33;;;9.40;99.90;;;;;;5026928;28;20050;-56
2022/12/23 04:51:09;;;;;;;4.68;3.35;;;9.30;99.90;;;;;;5004930;28;20083;-56
2022/12/23 04:53:55;;;;;;;5.20;3.25;;;9.40;99.90;;;;;;5013781;28;20042;-51
2022/12/23 04:56:40;;;;;;;14.32;3.40;;;9.50;99.90;;;;;;5031307;28;20029;-47
2022/12/23 04:59:26;;;;;;;4.95;3.05;;;9.60;99.90;;;;;;5019022;28;20414;-49
2022/12/23 05:02:12;;;;;;;5.57;3.00;;;9.60;99.90;;;;;;5010307;28;20121;-54
2022/12/23 05:04:58;;;;;;;5.10;3.20;;;9.60;99.90;;;;;;5004089;28;20034;-52
2022/12/23 05:07:44;;;;;;;6.38;3.60;;;9.50;99.90;;;;;;5012222;28;20033;-52
2022/12/23 05:10:31;;;;;;;5.85;3.13;;;9.50;99.90;;;;;;5031054;28;20026;-49
2022/12/23 05:13:17;;;;;;;5.18;3.30;;;9.50;99.90;;;;;;5021043;28;20034;-50
2022/12/23 05:16:03;;;;;;;5.88;3.10;;;9.40;99.90;;;;;;5010445;28;20034;-48
2022/12/23 05:18:49;;;;;;;5.22;3.30;;;9.50;99.90;;;;;;5011091;28;20411;-50
2022/12/23 05:21:35;;;;;;;5.88;3.10;;;9.40;99.90;;;;;;5013870;28;20030;-52
2022/12/23 05:24:20;;;;;;;7.25;3.10;;;9.50;99.90;;;;;;4991439;28;20037;-48
2022/12/23 05:27:06;;;;;;;3.78;2.92;;;9.50;99.90;;;;;;4991216;28;20076;-54
2022/12/23 05:29:52;;;;;;;6.10;3.50;;;9.50;99.90;;;;;;4991675;28;20038;-54
2022/12/23 05:32:38;;;;;;;4.25;2.85;;;9.60;99.90;;;;;;4977307;28;20030;-57
2022/12/23 05:35:25;;;;;;;5.93;3.10;;;9.70;99.90;;;;;;4995044;28;20029;-53
2022/12/23 05:38:11;;;;;;;6.85;3.70;;;9.60;99.90;;;;;;5031986;28;20060;-48
2022/12/23 05:40:57;;;;;;;5.38;3.40;;;9.60;99.90;;;;;;5019660;28;20602;-51
2022/12/23 05:43:43;;;;;;;4.97;2.80;;;9.70;99.90;;;;;;5020695;28;20262;-49
2022/12/23 05:46:29;;;;;;;6.03;3.15;;;9.70;99.90;;;;;;5020113;28;20025;-50
2022/12/23 05:49:15;;;;;;;5.65;3.03;;;9.60;99.90;;;;;;5023272;28;20029;-51
2022/12/23 05:52:01;;;;;;;4.63;3.17;;;9.60;99.90;;;;;;5013754;28;20526;-57
2022/12/23 05:54:47;;;;;;;4.00;3.28;;;9.50;99.90;;;;;;5028771;28;20053;-55
2022/12/23 05:57:33;;;;;;;4.32;3.03;;;9.60;99.90;;;;;;5034365;28;20091;-51
2022/12/23 06:00:19;;;;;;;4.22;3.03;;;9.70;99.90;;;;;;5014736;28;20132;-53
2022/12/23 06:03:05;;;;;;;4.53;2.90;;;9.70;99.90;;;;;;5012013;28;20525;-57
2022/12/23 06:05:51;;;;;;;5.28;3.10;;;9.70;99.90;;;;;;5013992;28;20026;-56
2022/12/23 06:08:37;;;;;;;4.03;3.05;;;9.70;99.90;;;;;;5016930;28;20087;-55
2022/12/23 06:11:23;;;;;;;6.35;3.30;;;9.70;99.90;;;;;;5033821;28;20025;-55
2022/12/23 06:14:09;;;;;;;4.65;2.97;;;9.70;99.90;;;;;;5003290;28;20037;-48
2022/12/23 06:16:55;;;;;;;6.75;5.18;;;9.70;99.90;;;;;;5013518;28;20062;-59
2022/12/23 06:19:41;;;;;;;4.43;3.42;;;9.70;99.90;;;;;;5033369;28;20494;-47
2022/12/23 06:22:27;;;;;;;6.70;3.30;;;9.70;99.90;;;;;;5031034;28;20026;-52
2022/12/23 06:25:13;;;;;;;5.30;3.35;;;9.70;99.90;;;;;;5013474;28;20494;-50
2022/12/23 06:27:59;;;;;;;3.83;3.33;;;9.70;99.90;;;;;;5018369;28;20083;-48
2022/12/23 06:30:50;;;;;;;4.75;3.28;;;9.70;99.90;;;;;;5033436;28;20033;-47
2022/12/23 06:33:36;;;;;;;3.95;3.10;;;9.80;99.90;;;;;;5023969;28;20164;-50
2022/12/23 06:36:22;;;;;;;5.38;3.42;;;9.80;99.90;;;;;;5012555;28;20052;-55
2022/12/23 06:39:09;;;;;;;5.07;3.22;;;9.70;99.90;;;;;;4993351;28;20087;-55
2022/12/23 06:41:55;;;;;;;5.50;3.15;;;9.70;99.90;;;;;;4997768;28;20053;-48
2022/12/23 06:44:41;;;;;;;5.55;3.80;;;9.70;99.90;;;;;;5032093;28;20021;-49
2022/12/23 06:47:27;;;;;;;6.78;4.88;;;9.70;99.90;;;;;;5029495;28;20084;-52
2022/12/23 06:50:13;;;;;;;5.05;3.60;;;9.60;99.90;;;;;;5026887;28;20022;-52
2022/12/23 06:52:59;;;;;;;4.20;3.40;;;9.60;99.90;;;;;;5026129;28;20038;-52
2022/12/23 06:55:45;;;;;;;6.03;3.70;;;9.70;99.90;;;;;;5030470;28;20061;-55
2022/12/23 06:58:31;;;;;;;6.80;3.92;;;9.60;99.90;;;;;;5023843;28;20022;-47
2022/12/23 07:01:20;;;;;;;6.68;4.18;;;9.60;99.90;;;;;;5016347;28;20402;-51
2022/12/23 07:04:06;;;;;;;5.15;3.78;;;9.60;99.90;;;;;;5031258;28;20110;-47
2022/12/23 07:06:52;;;;;;;4.00;3.60;;;9.60;99.90;;;;;;5025439;28;20080;-54
2022/12/23 07:09:38;;;;;;;5.13;3.70;;;9.60;99.90;;;;;;5012678;28;20037;-49
2022/12/23 07:12:24;;;;;;;5.50;4.60;;;9.60;99.90;;;;;;5011784;28;20041;-51
2022/12/23 07:15:10;;;;;;;7.00;4.05;;;9.60;99.90;;;;;;5013178;28;20117;-54
2022/12/23 07:17:56;;;;;;;5.57;4.07;;;9.50;99.90;;;;;;5024157;28;20065;-52
2022/12/23 07:20:42;;;;;;;5.40;3.72;;;9.50;99.90;;;;;;5032991;28;20040;-51
2022/12/23 07:23:29;;;;;;;5.55;4.07;;;9.60;99.90;;;;;;5011770;28;20041;-60
2022/12/23 07:26:15;;;;;;;6.22;4.15;;;9.60;99.90;;;;;;5011636;28;20026;-50
2022/12/23 07:29:01;;;;;;;7.57;4.28;;;9.60;99.90;;;;;;5010929;28;20021;-52
2022/12/23 07:31:47;;;;;;;6.32;4.30;;;9.60;99.90;;;;;;5010097;28;20026;-54
2022/12/23 07:34:33;;;;;;;6.18;4.80;;;9.50;99.90;;;;;;5011653;28;20088;-55
2022/12/23 07:37:19;;;;;;;6.57;4.68;;;9.60;99.90;;;;;;5025758;28;20033;-56
2022/12/23 07:40:06;;;;;;;5.25;4.22;;;9.50;99.90;;;;;;5030588;28;20029;-54
2022/12/23 07:42:57;;;;;;;5.32;4.82;;;9.50;99.90;;;;;;4991589;28;20038;-48
2022/12/23 07:45:43;;;;;;;6.93;5.28;;;9.50;99.90;;;;;;4998018;28;20084;-54
2022/12/23 07:48:29;;;;;;;12.32;5.50;;;9.50;99.90;;;;;;5030475;28;20080;-54
2022/12/23 07:51:15;;;;;;;8.55;5.30;;;9.50;99.90;;;;;;5024115;28;20026;-52
2022/12/23 07:54:01;;;;;;;7.65;5.65;;;9.60;99.90;;;;;;5004382;28;20030;-48
2022/12/23 07:56:47;;;;;;;9.07;5.20;;;9.60;99.90;;;;;;5021866;28;20033;-50
2022/12/23 07:59:33;;;;;;;7.05;5.32;;;9.60;99.90;;;;;;5031838;28;20456;-48
2022/12/23 08:02:20;;;;;;;7.32;5.10;;;9.60;99.90;;;;;;5010238;28;20036;-49
2022/12/23 08:05:07;;;;;;;10.88;5.45;;;9.60;99.90;;;;;;5015651;28;20141;-55
2022/12/23 08:07:53;;;;;;;7.53;5.40;;;9.60;99.90;;;;;;5029011;28;20026;-48
2022/12/23 08:10:39;;;;;;;6.97;5.65;;;9.70;99.90;;;;;;5031551;28;20029;-48
2022/12/23 08:13:26;;;;;;;6.45;4.82;;;9.70;99.90;;;;;;5011673;28;20037;-50
2022/12/23 08:16:12;;;;;;;6.20;5.10;;;9.70;99.90;;;;;;5016439;28;20049;-48
2022/12/23 08:18:58;;;;;;;6.28;5.13;;;9.70;99.90;;;;;;5030478;28;20575;-50
2022/12/23 08:21:43;;;;;;;6.72;4.78;;;9.60;99.90;;;;;;5019487;28;20617;-52
2022/12/23 08:24:29;;;;;;;5.82;4.97;;;9.60;99.90;;;;;;5010655;28;20127;-49
2022/12/23 08:27:15;;;;;;;5.75;5.20;;;9.60;99.90;;;;;;5011597;28;20083;-51
2022/12/23 08:30:02;;;;;;;7.28;5.07;;;9.70;99.90;;;;;;5010265;28;20022;-49
2022/12/23 08:32:48;;;;;;;7.75;4.85;;;9.70;99.90;;;;;;4991935;28;20035;-55
2022/12/23 08:35:33;;;;;;;7.38;5.03;;;9.70;99.90;;;;;;4991992;28;20031;-52
2022/12/23 08:38:19;;;;;;;6.63;5.03;;;9.70;99.90;;;;;;4996039;28;20026;-50
2022/12/23 08:41:10;;;;;;;5.90;4.78;;;9.80;99.90;;;;;;5023650;28;20112;-56
2022/12/23 08:43:57;;;;;;;4.97;4.20;;;9.90;99.90;;;;;;5004036;28;20039;-55
2022/12/23 08:46:45;;;;;;;6.13;4.28;;;10.00;99.90;;;;;;5012749;28;20101;-53
2022/12/23 08:49:31;;;;;;;6.68;4.65;;;10.00;99.90;;;;;;5011096;28;20030;-51
2022/12/23 08:52:17;;;;;;;6.68;4.88;;;10.00;99.90;;;;;;5005682;28;20110;-51
2022/12/23 08:55:03;;;;;;;6.95;4.43;;;10.00;99.90;;;;;;5011338;28;20406;-51
2022/12/23 08:57:49;;;;;;;5.35;4.60;;;10.10;99.90;;;;;;5011801;28;20407;-49
2022/12/23 09:00:35;;;;;;;5.65;4.50;;;10.10;99.90;;;;;;5004920;28;20402;-50
2022/12/23 09:03:21;;;;;;;6.03;4.75;;;10.10;99.90;;;;;;5008963;28;20049;-49
2022/12/23 09:06:32;;;;;;;7.18;4.90;;;10.10;99.90;;;;;;5014820;28;20525;-48
2022/12/23 09:09:18;;;;;;;5.65;4.22;;;10.20;99.90;;;;;;5000734;28;20158;-48
2022/12/23 09:12:04;;;;;;;5.47;4.30;;;10.20;99.90;;;;;;5011384;28;20076;-47
2022/12/23 09:14:49;;;;;;;4.78;3.88;;;10.10;99.90;;;;;;5010806;28;20034;-47
2022/12/23 09:17:35;;;;;;;6.35;4.32;;;10.00;99.90;;;;;;5011515;28;20041;-47
2022/12/23 09:20:21;;;;;;;10.48;4.95;;;10.20;99.90;;;;;;5011041;28;20475;-50
2022/12/23 09:23:08;;;;;;;6.78;4.68;;;10.20;99.90;;;;;;5025799;28;20106;-50
2022/12/23 09:25:54;;;;;;;8.27;4.30;;;10.10;99.90;;;;;;5011490;28;20081;-49
2022/12/23 09:28:40;;;;;;;5.00;4.43;;;10.20;99.90;;;;;;5010710;28;20033;-56
2022/12/23 09:31:27;;;;;;;5.03;4.10;;;10.30;99.90;;;;;;5001681;28;20311;-59
2022/12/23 09:34:13;;;;;;;6.97;4.05;;;10.40;99.90;;;;;;5012827;28;20038;-54
2022/12/23 09:36:58;;;;;;;7.63;4.15;;;10.60;99.90;;;;;;5012281;28;20491;-50
2022/12/23 09:39:44;;;;;;;4.97;4.22;;;10.50;99.90;;;;;;5010527;28;20446;-47
2022/12/23 09:42:33;;;;;;;6.43;4.03;;;10.60;99.90;;;;;;5011030;28;20458;-51
2022/12/23 09:45:32;;;;;;;4.82;3.55;;;10.70;99.90;;;;;;5010290;28;20026;-57
2022/12/23 09:48:24;;;;;;;5.25;3.92;;;10.60;99.90;;;;;;5011491;28;20053;-49
2022/12/23 09:51:11;;;;;;;5.70;4.22;;;10.70;99.90;;;;;;5009445;28;20402;-48
2022/12/23 09:54:21;;;;;;;7.18;4.35;;;10.70;99.90;;;;;;5013521;28;20041;-52
2022/12/23 09:57:30;;;;;;;5.75;4.18;;;10.70;99.90;;;;;;5010733;28;20026;-50
2022/12/23 10:00:18;;;;;;;6.38;4.57;;;10.60;99.90;;;;;;5012801;28;20030;-55
2022/12/23 10:03:13;;;;;;;6.75;4.43;;;10.60;99.90;;;;;;5011630;28;20022;-49
2022/12/23 10:06:18;;;;;;;5.93;4.25;;;10.60;99.90;;;;;;5012964;28;20442;-46
2022/12/23 10:09:08;;;;;;;8.85;4.55;;;10.60;99.90;;;;;;5010781;28;20072;-52
2022/12/23 10:11:54;;;;;;;9.00;5.60;;;10.50;99.90;;;;;;5008331;28;20092;-48
2022/12/23 10:14:42;;;;;;;5.97;4.43;;;10.60;99.90;;;;;;5012878;28;20029;-50
2022/12/23 10:17:36;;;;;;;5.72;4.25;;;10.60;99.90;;;;;;5020806;28;20026;-54
2022/12/23 10:20:38;;;;;;;6.28;4.85;;;10.50;99.90;;;;;;5007527;28;20026;-62
2022/12/23 10:23:33;;;;;;;10.85;5.53;;;10.50;99.90;;;;;;5009721;28;20216;-48
2022/12/23 10:26:23;;;;;;;;;;;10.40;99.90;;;;;;5013719;28;20033;-49
2022/12/23 10:29:16;;;;;;;12.25;5.30;;;10.40;99.90;;;;;;5011710;28;19949;-54
2022/12/23 10:32:36;;;;;;;10.07;4.85;;;10.50;99.90;;;;;;5012091;28;20064;-54
2022/12/23 10:36:12;;;;;;;8.10;4.63;;;10.70;99.90;;;;;;5010000;28;20022;-58
2022/12/23 10:39:08;;;;;;;8.15;4.95;;;10.60;99.90;;;;;;4949211;28;20137;-53
2022/12/23 10:42:20;;;;;;;8.15;4.97;;;10.60;99.90;;;;;;5009695;28;20033;-47
2022/12/23 10:45:13;;;;;;;6.35;4.40;;;10.60;99.90;;;;;;5011112;28;20026;-55
2022/12/23 10:48:22;;;;;;;5.85;4.88;;;10.70;99.90;;;;;;5024784;28;20379;-56
2022/12/23 10:51:27;;;;;;;12.10;8.07;;;10.70;99.90;;;;;;5026126;28;20446;-54
2022/12/23 10:54:33;;;;;;;10.80;6.38;;;10.70;99.90;;;;;;5015978;28;20038;-51
2022/12/23 10:57:22;;;;;;;6.95;5.03;;;10.90;99.90;;;;;;5010607;28;20021;-50
2022/12/23 11:00:17;;;;;;;7.38;4.90;;;11.10;99.90;;;;;;5016933;28;20030;-52
2022/12/23 11:03:22;;;;;;;7.93;4.30;;;11.20;99.90;;;;;;4998817;28;20104;-49
2022/12/23 11:06:10;;;;;;;10.23;5.13;;;11.20;99.90;;;;;;5018071;28;20021;-52
2022/12/23 11:08:58;;;;;;;6.45;4.80;;;11.20;99.90;;;;;;5032268;28;20029;-49
2022/12/23 11:12:05;;;;;;;6.40;4.13;;;11.30;99.90;;;;;;5031502;28;20021;-51
2022/12/23 11:14:55;;;;;;;7.25;4.57;;;11.30;99.90;;;;;;5033041;28;20103;-52
2022/12/23 11:17:41;;;;;;;8.50;5.10;;;11.40;99.90;;;;;;5016566;28;20100;-52
2022/12/23 11:20:28;;;;;;;8.65;4.50;;;11.40;99.90;;;;;;5016635;28;20032;-51
2022/12/23 11:23:27;;;;;;;6.47;4.85;;;11.30;99.90;;;;;;5019600;28;20467;-51
2022/12/23 11:26:18;;;;;;;7.00;4.82;;;11.30;99.90;;;;;;5005984;28;20096;-51
2022/12/23 11:29:09;;;;;;;4.82;4.13;;;11.20;99.90;;;;;;5018558;28;20083;-52
2022/12/23 11:31:56;;;;;;;6.65;5.15;;;11.20;99.90;;;;;;5015475;28;20018;-53
2022/12/23 11:34:44;;;;;;;5.35;4.15;;;11.20;99.90;;;;;;5012232;28;20117;-53
2022/12/23 11:37:41;;;;;;;5.13;4.30;;;11.20;99.90;;;;;;5010314;28;20026;-52
2022/12/23 11:40:32;;;;;;;5.95;4.15;;;11.20;99.90;;;;;;5012647;28;20042;-55
2022/12/23 11:43:19;;;;;;;6.07;4.18;;;11.30;99.90;;;;;;5031471;28;20032;-50
2022/12/23 11:46:30;;;;;;;5.60;4.05;;;11.30;99.90;;;;;;5015464;28;20038;-52
2022/12/23 11:49:16;;;;;;;10.70;4.40;;;11.30;99.90;;;;;;5012180;28;20034;-52
2022/12/23 11:52:12;;;;;;;5.90;4.10;;;11.10;99.90;;;;;;5030710;28;20037;-49
2022/12/23 11:55:00;;;;;;;4.22;3.55;;;11.30;99.90;;;;;;5026735;28;20030;-58
2022/12/23 11:57:48;;;;;;;6.57;4.20;;;11.20;99.90;;;;;;5011682;28;20029;-50
2022/12/23 12:00:48;;;;;;;4.85;3.80;;;11.20;99.90;;;;;;5017732;28;20034;-51
2022/12/23 12:03:43;;;;;;;4.45;3.85;;;11.40;99.90;;;;;;5010610;28;20038;-51
2022/12/23 12:06:31;;;;;;;4.22;3.78;;;11.50;99.90;;;;;;5012463;28;20018;-49
2022/12/23 12:09:18;;;;;;;6.18;3.90;;;11.40;99.90;;;;;;5011966;28;20446;-52
2022/12/23 12:12:16;;;;;;;4.53;4.00;;;11.30;99.90;;;;;;5010972;28;20397;-51
2022/12/23 12:15:02;;;;;;;4.47;3.67;;;11.20;99.90;;;;;;5010836;28;20029;-49
2022/12/23 12:17:51;;;;;;;5.07;4.25;;;11.10;99.90;;;;;;5008710;28;20762;-48
2022/12/23 12:20:43;;;;;;;5.97;4.00;;;11.30;99.90;;;;;;5010265;28;20613;-55
2022/12/23 12:23:49;;;;;;;5.57;4.22;;;11.30;99.90;;;;;;5010616;28;20399;-46
2022/12/23 12:26:37;;;;;;;8.18;4.43;;;11.40;99.90;;;;;;5024390;28;20053;-53
2022/12/23 12:29:38;;;;;;;5.55;4.45;;;11.10;99.90;;;;;;5025847;28;20112;-49
2022/12/23 12:32:50;;;;;;;4.65;3.80;;;10.80;99.90;;;;;;4991018;28;20372;-53
2022/12/23 12:36:06;;;;;;;10.52;9.23;;;10.80;99.90;;;;;;5007854;28;20126;-49
2022/12/23 12:38:52;;;;;;;;;;;10.70;99.90;;;;;;5018446;28;20033;-50
2022/12/23 12:42:02;;;;;;;4.93;4.38;;;10.60;99.90;;;;;;4992717;28;20310;-49
2022/12/23 12:45:02;;;;;;;4.20;3.80;;;10.60;99.90;;;;;;5004691;28;20040;-52
2022/12/23 12:48:12;;;;;;;4.53;3.55;;;10.50;99.90;;;;;;5016140;28;20100;-54
2022/12/23 12:51:11;;;;;;;3.95;3.38;;;10.60;99.90;;;;;;4995481;28;20035;-52
2022/12/23 12:54:04;;;;;;;4.00;3.40;;;10.50;99.90;;;;;;5008840;28;20124;-48
2022/12/23 12:56:53;;;;;;;3.83;3.28;;;10.50;99.90;;;;;;5027574;28;20026;-52
2022/12/23 12:59:40;;;;;;;4.10;3.25;;;10.60;99.90;;;;;;4995649;28;20113;-53
2022/12/23 13:02:35;;;;;;;3.40;3.05;;;10.50;99.90;;;;;;5010258;28;20438;-52
2022/12/23 13:05:42;;;;;;;3.78;3.35;;;10.70;99.90;;;;;;5011917;28;20034;-51
2022/12/23 13:08:53;;;;;;;3.22;2.92;;;10.60;99.90;;;;;;5015869;28;20030;-47
2022/12/23 13:12:20;;;;;;;12.55;8.75;;;10.50;99.90;;;;;;5010712;28;20014;-54
2022/12/23 13:15:34;;;;;;;4.90;3.33;;;10.60;99.90;;;;;;5009104;28;20041;-52
2022/12/23 13:18:46;;;;;;;4.60;4.00;;;10.60;99.90;;;;;;5033369;28;20048;-54
2022/12/23 13:21:38;;;;;;;4.03;3.63;;;10.60;99.90;;;;;;5031038;28;20433;-53
2022/12/23 13:24:59;;;;;;;3.85;3.38;;;10.60;99.90;;;;;;5027435;28;20088;-53
2022/12/23 13:28:39;;;;;;;3.53;3.20;;;10.60;99.90;;;;;;5031685;28;20606;-54
2022/12/23 13:31:55;;;;;;;3.50;3.20;;;10.60;99.90;;;;;;5009044;28;20465;-53
2022/12/23 13:35:00;;;;;;;4.85;4.30;;;10.70;99.90;;;;;;5020979;28;20030;-63
2022/12/23 13:37:54;;;;;;;7.40;6.32;;;10.70;99.90;;;;;;5004529;28;20042;-54
2022/12/23 13:41:05;;;;;;;7.93;6.88;;;10.70;99.90;;;;;;5024829;28;20474;-56
2022/12/23 13:43:54;;;;;;;9.07;7.20;;;10.70;99.90;;;;;;5011985;28;20034;-63
2022/12/23 13:46:45;;;;;;;9.77;8.18;;;10.70;99.90;;;;;;5011794;28;20087;-54
2022/12/23 13:49:55;;;;;;;8.45;6.57;;;10.70;99.90;;;;;;5019131;28;20744;-52
2022/12/23 13:52:55;;;;;;;7.90;6.45;;;10.70;99.90;;;;;;5013420;28;20044;-53
2022/12/23 13:56:16;;;;;;;7.45;6.18;;;10.70;99.90;;;;;;5011759;28;20529;-50
2022/12/23 13:59:02;;;;;;;10.50;9.00;;;10.70;99.90;;;;;;5001051;28;20038;-53
2022/12/23 14:01:51;;;;;;;10.02;7.45;;;10.60;99.90;;;;;;4996863;28;20197;-48
2022/12/23 14:04:57;;;;;;;13.07;11.65;;;10.60;99.90;;;;;;5011432;28;20030;-54
2022/12/23 14:07:44;;;;;;;9.75;8.75;;;10.70;99.90;;;;;;5012953;28;20112;-50
2022/12/23 14:10:30;;;;;;;9.10;8.10;;;10.70;99.90;;;;;;5003215;28;20030;-49
2022/12/23 14:13:17;;;;;;;8.20;7.13;;;10.70;99.90;;;;;;5013424;28;20014;-52
2022/12/23 14:16:19;;;;;;;14.77;13.02;;;10.70;99.90;;;;;;5013205;28;20038;-53
2022/12/23 14:19:05;;;;;;;13.70;11.98;;;10.70;99.90;;;;;;4994333;28;20034;-51
2022/12/23 14:22:13;;;;;;;11.07;8.93;;;10.70;99.90;;;;;;5006231;28;20022;-51
2022/12/23 14:25:20;;;;;;;5.43;4.88;;;10.80;99.90;;;;;;5009836;28;20405;-54
2022/12/23 14:28:31;;;;;;;4.55;3.78;;;10.80;99.90;;;;;;4987845;28;20483;-50
2022/12/23 14:31:53;;;;;;;4.03;3.55;;;10.70;99.90;;;;;;5008182;28;20494;-49
2022/12/23 14:35:04;;;;;;;3.83;3.50;;;10.70;99.90;;;;;;5031358;28;20119;-55
2022/12/23 14:38:14;;;;;;;4.10;3.70;;;10.70;99.90;;;;;;5034888;28;20022;-50
2022/12/23 14:41:21;;;;;;;4.13;3.60;;;10.70;99.90;;;;;;5034355;28;20100;-49
2022/12/23 14:44:19;;;;;;;13.40;8.98;;;10.60;99.90;;;;;;4994717;28;20487;-52
2022/12/23 14:47:27;;;;;;;5.15;4.22;;;10.60;99.90;;;;;;4993609;28;20038;-48
2022/12/23 14:50:36;;;;;;;5.10;4.40;;;10.60;99.90;;;;;;4994833;28;20022;-48
2022/12/23 14:53:27;;;;;;;7.53;6.00;;;10.50;99.90;;;;;;4995554;28;20054;-50
2022/12/23 14:56:28;;;;;;;16.90;12.25;;;10.50;99.90;;;;;;4995788;28;20097;-52
2022/12/23 14:59:37;;;;;;;7.25;5.85;;;10.50;99.90;;;;;;5007857;28;20061;-53
2022/12/23 15:02:35;;;;;;;7.97;5.18;;;10.50;99.90;;;;;;5007910;28;20046;-54
2022/12/23 15:05:22;;;;;;;12.57;9.40;;;10.50;99.90;;;;;;5010621;28;20069;-54
2022/12/23 15:08:27;;;;;;;11.68;8.63;;;10.40;99.90;;;;;;5007024;28;20019;-54
2022/12/23 15:11:23;;;;;;;7.07;5.50;;;10.40;99.90;;;;;;5008705;28;20030;-53
2022/12/23 15:14:17;;;;;;;8.18;5.65;;;10.40;99.90;;;;;;5010991;28;20025;-49
2022/12/23 15:17:27;;;;;;;6.43;5.43;;;10.40;99.90;;;;;;5023320;28;20021;-54
2022/12/23 15:20:18;;;;;;;9.40;6.00;;;10.40;99.90;;;;;;5017510;28;20498;-50
2022/12/23 15:23:10;;;;;;;9.57;8.35;;;10.30;99.90;;;;;;5015434;28;20040;-48
2022/12/23 15:25:58;;;;;;;8.20;7.10;;;10.30;99.90;;;;;;5014692;28;20030;-51
2022/12/23 15:28:44;;;;;;;8.02;7.22;;;10.20;99.90;;;;;;5015145;28;20030;-54
2022/12/23 15:31:36;;;;;;;7.88;7.07;;;10.10;99.90;;;;;;5020407;28;20084;-50